Latest Weather Observations for Stenhouse Bay

IDS60801

Issued at 12:31 pm CST Tuesday 30 August 2016 (issued every 30 minutes, with the page automatically refreshed every 10 minutes)

About weather observations | Map of weather stations | Latest weather observations for SA | Other Formats
Station Details ID: 022049 Name: STENHOUSE BAY Lat: -35.28 Lon: 136.94 Height: 42.0 m
Data from the previous 72 hours. | See also: Recent months at Stenhouse Bay
Date/Time
CST
Temp
°C
App
Temp
°C
Dew
Point
°C
Rel
Hum
%
Delta-T
°C
Wind Press
QNH
hPa
Press
MSL
hPa
Rain since
9am
mm
Dir  Spd
km/h
Gust
km/h
Spd
kts
Gust
kts
30/12:30pm 19.1 17.0 17.1 88 1.2 NNW 24 35 13 19 1009.7 1009.7 0.0
30/12:00pm 18.7 15.7 16.9 89 1.1 NNW 28 41 15 22 1010.0 1010.0 0.0
30/11:30am 18.1 15.2 17.0 93 0.7 N 28 35 15 19 1010.3 1010.3 0.0
30/11:00am 17.3 15.3 17.3 100 0.0 N 24 35 13 19 1010.5 1010.5 0.0
30/10:30am 15.8 13.9 15.8 100 0.0 N 20 30 11 16 1010.6 1010.6 0.0
30/10:00am 16.3 14.8 16.3 100 0.0 N 19 26 10 14 1010.9 1010.9 0.0
30/09:30am 15.0 13.0 15.0 100 0.0 N 19 26 10 14 1011.2 1011.2 0.0
30/09:00am 14.6 11.9 14.6 100 0.0 N 22 30 12 16 1011.1 1011.1 1.2
30/08:30am 14.6 12.3 14.6 100 0.0 N 20 28 11 15 1010.8 1010.8 1.2
30/08:00am 13.4 10.9 13.4 100 0.0 N 19 22 10 12 1010.5 1010.5 1.2
30/07:30am 12.7 10.3 12.7 100 0.0 N 17 24 9 13 1010.3 1010.3 1.2
30/07:00am 11.9 9.3 11.9 100 0.0 N 17 24 9 13 1010.2 1010.2 1.0
30/06:30am 12.1 9.9 12.1 100 0.0 N 15 19 8 10 1010.3 1010.3 1.0
30/06:00am 12.5 10.8 12.5 100 0.0 N 13 19 7 10 1010.0 1010.0 1.0
30/05:30am 12.5 10.8 12.5 100 0.0 N 13 17 7 9 1009.9 1009.9 1.0
30/05:00am 12.4 11.1 12.4 100 0.0 N 11 13 6 7 1009.9 1009.9 1.0
30/04:30am 12.3 11.3 12.3 100 0.0 N 9 11 5 6 1009.8 1009.8 1.0
30/04:00am 12.3 11.7 12.3 100 0.0 N 7 11 4 6 1010.1 1010.1 1.0
30/03:30am 12.9 12.5 12.9 100 0.0 N 7 9 4 5 1010.1 1010.1 1.0
30/03:00am 13.7 12.8 13.7 100 0.0 N 11 17 6 9 1010.4 1010.4 0.8
30/02:30am 14.1 13.7 14.1 100 0.0 NNW 9 13 5 7 1010.5 1010.5 0.0
30/02:00am 14.6 12.9 14.6 100 0.0 NNW 17 24 9 13 1010.8 1010.8 0.0
30/01:30am 14.9 11.9 14.7 99 0.1 NNW 24 35 13 19 1010.5 1010.5 0.0
30/01:00am 15.2 11.5 15.0 99 0.1 N 28 39 15 21 1010.4 1010.4 0.0
30/12:34am 14.9 11.1 14.7 99 0.1 N 28 48 15 26 1009.9 1009.9 0.0
30/12:30am 14.8 11.0 14.6 99 0.1 N 28 37 15 20 1009.9 1009.9 0.0
30/12:00am 14.6 10.4 14.6 100 0.0 N 30 46 16 25 1010.4 1010.4 0.0
 
Date/Time
CST
Temp
°C
App
Temp
°C
Dew
Point
°C
Rel
Hum
%
Delta-T
°C
Wind Press
QNH
hPa
Press
MSL
hPa
Rain since
9am
mm
Dir  Spd
km/h
Gust
km/h
Spd
kts
Gust
kts
29/11:30pm 14.3 10.0 14.3 100 0.0 N 30 41 16 22 1010.2 1010.2 0.0
29/11:00pm 14.3 10.0 14.3 100 0.0 NNE 30 43 16 23 1010.4 1010.4 0.0
29/10:30pm 14.5 10.6 14.3 99 0.1 NNE 28 44 15 24 1010.0 1010.0 0.0
29/10:00pm 15.1 9.4 14.1 94 0.6 NNE 37 50 20 27 1010.1 1010.1 0.0
29/09:30pm 15.2 10.2 13.9 92 0.7 N 33 44 18 24 1009.9 1009.9 0.0
29/09:00pm 14.9 11.1 14.7 99 0.1 NNE 28 43 15 23 1009.8 1009.8 0.0
29/08:30pm 14.4 12.0 14.4 100 0.0 NE 20 26 11 14 1010.0 1010.0 0.0
29/08:00pm 14.4 12.2 14.4 100 0.0 NE 19 24 10 13 1009.6 1009.6 0.0
29/07:30pm 14.4 12.2 14.4 100 0.0 NNE 19 24 10 13 1009.9 1009.9 0.0
29/07:00pm 14.6 12.5 14.6 100 0.0 N 19 24 10 13 1009.9 1009.9 0.0
29/06:30pm 15.9 10.9 14.1 89 1.0 N 33 43 18 23 1009.2 1009.2 0.0
29/06:00pm 16.3 10.7 13.4 83 1.6 N 35 48 19 26 1009.4 1009.4 0.0
29/05:30pm 17.0 12.0 12.1 73 2.7 N 30 39 16 21 1009.1 1009.1 0.0
29/05:00pm 17.7 14.1 11.9 69 3.2 NNE 22 30 12 16 1009.1 1009.1 0.0
29/04:30pm 18.0 14.8 11.8 67 3.4 NNE 20 32 11 17 1008.8 1008.8 0.0
29/04:00pm 17.9 13.4 11.5 66 3.5 N 26 35 14 19 1008.8 1008.8 0.0
29/03:30pm 18.0 12.8 10.4 61 4.1 NNE 28 39 15 21 1008.7 1008.7 0.0
29/03:00pm 18.2 14.2 10.3 60 4.2 NNE 22 32 12 17 1008.7 1008.7 0.0
29/02:30pm 18.5 13.3 10.1 58 4.5 NNE 28 41 15 22 1009.0 1009.0 0.0
29/02:00pm 18.5 13.2 9.8 57 4.6 NNE 28 39 15 21 1008.6 1008.6 0.0
29/01:30pm 19.1 12.3 9.3 53 5.2 N 35 50 19 27 1009.3 1009.3 0.0
29/01:00pm 19.3 12.2 9.5 53 5.2 NNE 37 54 20 29 1009.6 1009.6 0.0
29/12:30pm 17.9 11.0 9.0 56 4.6 N 35 46 19 25 1010.2 1010.2 0.0
29/12:18pm 17.9 10.7 9.0 56 4.6 N 37 57 20 31 1010.4 1010.4 0.0
29/12:00pm 18.7 11.5 9.2 54 5.0 NNE 37 46 20 25 1010.3 1010.3 0.0
29/11:42am 18.9 13.3 10.2 57 4.7 NNE 30 52 16 28 1010.6 1010.6 0.0
29/11:30am 16.8 11.8 9.7 63 3.7 NNE 26 37 14 20 1010.7 1010.7 0.0
29/11:00am 16.3 9.8 9.0 62 3.8 NNE 33 46 18 25 1010.8 1010.8 0.0
29/10:30am 16.9 11.4 10.5 66 3.4 NE 30 43 16 23 1010.8 1010.8 0.0
29/10:00am 16.4 11.2 11.6 73 2.6 NE 30 46 16 25 1011.3 1011.3 0.0
29/09:30am 14.0 9.1 11.3 84 1.4 NE 28 39 15 21 1011.7 1011.7 0.0
29/09:00am 13.5 8.5 12.1 91 0.8 NE 30 41 16 22 1011.9 1011.9 2.6
29/08:30am 13.1 7.8 12.6 97 0.3 NE 32 41 17 22 1011.9 1011.9 2.6
29/08:00am 13.2 7.5 13.0 99 0.1 NE 35 48 19 26 1011.5 1011.5 2.6
29/07:30am 12.4 7.5 12.4 100 0.0 NE 30 43 16 23 1011.6 1011.6 2.4
29/07:00am 12.1 7.4 12.1 100 0.0 NNE 28 39 15 21 1012.1 1012.1 2.0
29/06:30am 12.7 9.3 12.5 99 0.1 NNE 22 33 12 18 1012.1 1012.1 1.4
29/06:00am 13.2 8.7 12.6 96 0.3 NE 28 35 15 19 1011.8 1011.8 1.2
29/05:30am 13.7 8.5 12.8 94 0.5 NE 32 43 17 23 1011.4 1011.4 1.2
29/05:00am 13.7 8.7 13.4 98 0.2 NE 32 37 17 20 1011.4 1011.4 1.2
29/04:30am 13.4 9.5 13.2 99 0.1 NE 26 35 14 19 1011.1 1011.1 1.2
29/04:00am 12.8 9.5 12.8 100 0.0 NE 22 30 12 16 1011.4 1011.4 1.2
29/03:30am 12.9 9.9 12.4 97 0.3 NNE 20 32 11 17 1011.5 1011.5 1.0
29/03:00am 12.9 9.1 12.4 97 0.3 NNE 24 35 13 19 1011.4 1011.4 1.0
29/02:30am 12.7 8.5 12.5 99 0.1 NE 26 37 14 20 1011.9 1011.9 1.0
29/02:00am 12.3 8.4 12.1 99 0.1 NNE 24 35 13 19 1012.5 1012.5 1.0
29/01:30am 12.5 7.2 11.2 92 0.7 NNE 30 39 16 21 1013.0 1013.0 0.8
29/01:00am 16.1 8.8 7.3 56 4.4 N 35 44 19 24 1012.7 1012.7 0.0
29/12:30am 16.6 9.8 6.7 52 4.9 NNE 32 43 17 23 1012.4 1012.4 0.0
29/12:00am 16.6 9.6 6.7 52 4.9 NNE 33 46 18 25 1012.3 1012.3 0.0
 
Date/Time
CST
Temp
°C
App
Temp
°C
Dew
Point
°C
Rel
Hum
%
Delta-T
°C
Wind Press
QNH
hPa
Press
MSL
hPa
Rain since
9am
mm
Dir  Spd
km/h
Gust
km/h
Spd
kts
Gust
kts
28/11:30pm 16.7 10.6 6.5 51 5.0 NNE 28 41 15 22 1012.1 1012.1 0.0
28/11:00pm 16.8 11.3 7.4 54 4.7 NNE 26 37 14 20 1012.1 1012.1 0.0
28/10:30pm 16.7 11.8 8.4 58 4.2 NE 24 32 13 17 1012.4 1012.4 0.0
28/10:00pm 16.3 12.6 9.3 63 3.6 NNE 19 24 10 13 1012.6 1012.6 0.0
28/09:30pm 16.3 11.9 8.8 61 3.9 NNE 22 32 12 17 1012.3 1012.3 0.0
28/09:00pm 16.8 11.1 8.2 57 4.4 NNE 28 37 15 20 1012.0 1012.0 0.0
28/08:30pm 17.2 11.0 7.8 54 4.8 NNE 30 41 16 22 1011.5 1011.5 0.0
28/08:00pm 17.5 10.9 7.8 53 4.9 NNE 32 44 17 24 1011.4 1011.4 0.0
28/07:30pm 17.9 10.2 7.0 49 5.5 NNE 37 50 20 27 1011.3 1011.3 0.0
28/07:00pm 17.9 10.1 6.7 48 5.6 NNE 37 50 20 27 1011.2 1011.2 0.0
28/06:30pm 18.2 10.5 7.3 49 5.5 NNE 37 56 20 30 1010.4 1010.4 0.0
28/06:00pm 18.0 11.2 7.7 51 5.2 NNE 33 50 18 27 1010.7 1010.7 0.0
28/05:55pm 18.0 11.3 7.4 50 5.4 NNE 32 50 17 27 1010.6 1010.6 0.0
28/05:30pm 18.2 10.8 6.7 47 5.7 NNE 35 46 19 25 1010.4 1010.4 0.0
28/05:00pm 18.2 10.0 6.4 46 5.9 NNE 39 54 21 29 1009.8 1009.8 0.0
28/04:30pm 18.4 10.4 5.9 44 6.2 NNE 37 56 20 30 1009.5 1009.5 0.0
28/04:04pm 18.8 11.2 6.0 43 6.3 NNE 35 54 19 29 1009.7 1009.7 0.0
28/04:00pm 19.0 11.5 6.5 44 6.2 NNE 35 52 19 28 1009.8 1009.8 0.0
28/03:34pm 19.2 10.9 6.0 42 6.5 NNE 39 57 21 31 1009.8 1009.8 0.0
28/03:30pm 19.9 11.7 6.6 42 6.7 NNE 39 52 21 28 1009.9 1009.9 0.0
28/03:13pm 20.0 11.8 6.7 42 6.7 NNE 39 57 21 31 1009.8 1009.8 0.0
28/03:00pm 19.7 11.2 6.8 43 6.5 NNE 41 56 22 30 1010.0 1010.0 0.0
28/02:30pm 19.9 11.6 7.6 45 6.3 N 41 54 22 29 1010.5 1010.5 0.0
28/02:00pm 19.6 10.7 7.0 44 6.4 N 43 54 23 29 1010.5 1010.5 0.0
28/01:40pm 19.6 11.7 7.7 46 6.1 N 39 57 21 31 1011.1 1011.1 0.0
28/01:30pm 19.3 10.5 7.4 46 6.1 NNE 43 56 23 30 1011.3 1011.3 0.0
28/01:00pm 19.4 12.0 8.4 49 5.7 N 37 48 20 26 1011.9 1011.9 0.0
28/12:30pm 19.3 12.3 8.6 50 5.6 N 35 48 19 26 1012.3 1012.3 0.0
28/12:00pm 19.1 11.3 8.1 49 5.7 N 39 52 21 28 1012.6 1012.6 0.0
28/11:30am 18.3 10.3 7.4 49 5.5 N 39 54 21 29 1013.0 1013.0 0.0
28/11:00am 18.5 11.0 7.9 50 5.4 N 37 50 20 27 1013.4 1013.4 0.0
28/10:30am 18.1 10.5 9.2 56 4.7 N 39 54 21 29 1013.7 1013.7 0.0
28/10:00am 17.2 10.3 8.9 58 4.3 N 35 44 19 24 1013.9 1013.9 0.0
28/09:30am 16.8 10.4 9.2 61 3.9 N 33 43 18 23 1014.1 1014.1 0.0
28/09:00am 15.3 9.0 8.8 65 3.3 N 32 46 17 25 1014.3 1014.3 0.0
28/08:30am 14.5 9.0 9.3 71 2.7 N 28 35 15 19 1014.6 1014.6 0.0
28/08:00am 12.6 7.8 8.7 77 2.0 N 24 32 13 17 1014.6 1014.6 0.0
28/07:30am 11.7 7.6 8.6 81 1.5 N 20 30 11 16 1014.5 1014.5 0.0
28/07:00am 10.3 6.3 8.1 86 1.1 N 19 24 10 13 1014.5 1014.5 0.0
28/06:30am 9.7 5.6 7.8 88 0.9 N 19 24 10 13 1014.3 1014.3 0.0
28/06:00am 9.8 5.8 8.4 91 0.7 N 19 20 10 11 1014.4 1014.4 0.0
28/05:30am 9.3 5.7 8.4 94 0.4 N 17 20 9 11 1014.4 1014.4 0.0
28/05:00am 9.2 5.6 8.4 95 0.4 N 17 19 9 10 1014.4 1014.4 0.0
28/04:30am 9.2 5.7 8.7 97 0.2 N 17 19 9 10 1014.4 1014.4 0.0
28/04:00am 9.3 6.2 8.7 96 0.3 N 15 19 8 10 1014.4 1014.4 0.0
28/03:30am 9.4 6.6 8.5 94 0.4 N 13 15 7 8 1014.8 1014.8 0.0
28/03:00am 9.9 7.2 9.0 94 0.4 N 13 17 7 9 1015.0 1015.0 0.0
28/02:30am 10.2 7.2 9.4 95 0.4 N 15 19 8 10 1015.3 1015.3 0.0
28/02:00am 10.2 7.4 9.9 98 0.2 N 15 19 8 10 1015.4 1015.4 0.0
28/01:30am 10.3 7.8 9.7 96 0.3 N 13 19 7 10 1016.0 1016.0 0.0
28/01:00am 10.3 7.7 9.5 95 0.4 N 13 17 7 9 1016.1 1016.1 0.0
28/12:30am 10.7 8.1 9.5 92 0.6 N 13 15 7 8 1016.4 1016.4 0.0
28/12:00am 11.2 8.8 10.0 92 0.6 N 13 19 7 10 1016.7 1016.7 0.0
 
Date/Time
CST
Temp
°C
App
Temp
°C
Dew
Point
°C
Rel
Hum
%
Delta-T
°C
Wind Press
QNH
hPa
Press
MSL
hPa
Rain since
9am
mm
Dir  Spd
km/h
Gust
km/h
Spd
kts
Gust
kts
27/11:30pm 11.2 9.0 9.5 89 0.9 N 11 15 6 8 1016.8 1016.8 0.0
27/11:00pm 11.6 9.0 9.3 86 1.2 N 13 17 7 9 1016.6 1016.6 0.0
27/10:30pm 11.8 9.2 9.2 84 1.3 N 13 19 7 10 1016.8 1016.8 0.0
27/10:00pm 12.1 9.1 9.1 82 1.5 N 15 19 8 10 1016.8 1016.8 0.0
27/09:30pm 12.0 8.9 8.7 80 1.6 N 15 19 8 10 1016.9 1016.9 0.0
27/09:00pm 12.3 9.1 8.6 78 1.8 N 15 20 8 11 1017.0 1017.0 0.0
27/08:30pm 12.2 9.1 8.7 79 1.7 N 15 22 8 12 1017.0 1017.0 0.0
27/08:00pm 12.2 9.1 9.0 81 1.6 N 15 20 8 11 1017.0 1017.0 0.0
27/07:30pm 12.6 9.6 9.4 81 1.6 N 15 22 8 12 1017.0 1017.0 0.0
27/07:00pm 12.8 9.8 9.3 79 1.8 N 15 19 8 10 1016.7 1016.7 0.0
27/06:30pm 13.2 10.5 9.1 76 2.1 N 13 19 7 10 1016.6 1016.6 0.0
27/06:00pm 13.6 11.3 9.1 74 2.3 N 11 15 6 8 1016.5 1016.5 0.0
27/05:30pm 14.5 11.7 8.5 67 3.0 N 13 17 7 9 1016.4 1016.4 0.0
27/05:00pm 15.5 11.9 8.3 62 3.6 N 17 22 9 12 1016.5 1016.5 0.0
27/04:30pm 16.5 12.6 7.2 54 4.6 N 17 22 9 12 1016.3 1016.3 0.0
27/04:00pm 16.6 12.0 6.7 52 4.9 N 20 28 11 15 1016.6 1016.6 0.0
27/03:30pm 18.3 12.9 6.2 45 6.0 N 24 32 13 17 1016.5 1016.5 0.0
27/03:00pm 18.1 12.2 6.0 45 5.9 N 26 35 14 19 1016.6 1016.6 0.0
27/02:30pm 18.4 12.5 7.5 49 5.5 NNW 28 41 15 22 1016.8 1016.8 0.0
27/02:00pm 18.1 12.4 8.4 53 5.0 NNW 28 41 15 22 1017.1 1017.1 0.0
27/01:30pm 17.3 10.5 6.8 50 5.2 NNW 32 43 17 23 1017.4 1017.4 0.0
27/01:00pm 17.6 12.1 9.0 57 4.5 N 28 39 15 21 1018.0 1018.0 0.0

Other Formats:

Comma delimited format used in spreadsheet applications
http://www.bom.gov.au/fwo/IDS60801/IDS60801.95806.axf

JavaScript Object Notation format (JSON) in row-major order
http://www.bom.gov.au/fwo/IDS60801/IDS60801.95806.json